createdAt,value
2018-06-05T00:00:54.398Z,69.60
2018-06-05T00:03:22.812Z,69.30
2018-06-05T00:05:51.184Z,69.30
2018-06-05T00:08:19.555Z,69.30
2018-06-05T00:10:47.936Z,69.30
2018-06-05T00:15:44.422Z,69.40
2018-06-05T00:18:12.791Z,69.30
2018-06-05T00:20:41.187Z,69.30
2018-06-05T00:23:09.560Z,69.30
2018-06-05T00:25:48.967Z,69.40
2018-06-05T00:28:17.355Z,69.40
2018-06-05T00:30:45.908Z,69.40
2018-06-05T00:33:14.293Z,69.40
2018-06-05T00:35:42.659Z,69.20
2018-06-05T00:38:11.135Z,69.40
2018-06-05T00:40:39.551Z,69.40
2018-06-05T00:43:07.980Z,69.30
2018-06-05T00:45:36.359Z,69.40
2018-06-05T00:48:04.744Z,69.40
2018-06-05T00:50:33.111Z,69.40
2018-06-05T00:53:01.488Z,69.40
2018-06-05T00:55:29.859Z,70.10
2018-06-05T00:57:58.281Z,69.40
2018-06-05T01:00:27.492Z,69.40
2018-06-05T01:02:56.663Z,69.40
2018-06-05T01:05:26.260Z,69.40
2018-06-05T01:07:55.383Z,69.40
2018-06-05T01:10:24.379Z,69.40
2018-06-05T01:12:52.755Z,69.40
2018-06-05T01:15:21.139Z,69.40
2018-06-05T01:17:49.522Z,69.40
2018-06-05T01:20:17.999Z,69.40
2018-06-05T01:22:46.391Z,69.40
2018-06-05T01:25:14.775Z,69.40
2018-06-05T01:27:43.147Z,69.40
2018-06-05T01:30:11.531Z,69.40
2018-06-05T01:32:40.123Z,69.40
2018-06-05T01:35:08.507Z,69.40
2018-06-05T01:37:36.898Z,69.40
2018-06-05T01:40:05.281Z,69.40
2018-06-05T01:42:33.688Z,69.30
2018-06-05T01:45:02.076Z,69.40
2018-06-05T01:47:30.631Z,69.40
2018-06-05T01:49:59.021Z,69.50
2018-06-05T01:52:27.411Z,69.50
2018-06-05T01:54:56.823Z,69.30
2018-06-05T01:57:26.649Z,69.40
2018-06-05T01:59:56.136Z,69.30
2018-06-05T02:02:25.475Z,69.30
2018-06-05T02:04:54.518Z,69.40
2018-06-05T02:07:22.896Z,69.30
2018-06-05T02:09:51.268Z,69.30
2018-06-05T02:12:19.699Z,69.30
2018-06-05T02:14:48.036Z,69.40
2018-06-05T02:17:16.412Z,69.40
2018-06-05T02:19:44.797Z,69.40
2018-06-05T02:22:13.175Z,69.40
2018-06-05T02:24:41.559Z,69.40
2018-06-05T02:27:09.943Z,69.40
2018-06-05T02:32:29.245Z,69.40
2018-06-05T02:34:57.650Z,69.40
2018-06-05T02:37:26.443Z,69.40
2018-06-05T02:39:55.343Z,69.40
2018-06-05T02:42:24.387Z,69.40
2018-06-05T02:44:52.763Z,69.40
2018-06-05T02:47:21.136Z,69.40
2018-06-05T02:49:49.511Z,69.40
2018-06-05T02:52:17.891Z,69.60
2018-06-05T02:54:46.255Z,69.40
2018-06-05T02:57:14.635Z,69.50
2018-06-05T02:59:43.044Z,69.40
2018-06-05T03:02:11.517Z,69.50
2018-06-05T03:04:39.877Z,69.40
2018-06-05T03:07:08.248Z,69.40
2018-06-05T03:09:36.604Z,69.40
2018-06-05T03:12:05.133Z,69.50
2018-06-05T03:14:33.503Z,69.30
2018-06-05T03:17:01.872Z,69.50
2018-06-05T03:19:30.231Z,69.40
2018-06-05T03:21:58.588Z,69.50
2018-06-05T03:24:26.987Z,69.30
2018-06-05T03:26:56.382Z,69.30
2018-06-05T03:29:25.290Z,69.30
2018-06-05T03:31:53.642Z,69.30
2018-06-05T03:34:22.828Z,69.30
2018-06-05T03:37:02.595Z,69.30
2018-06-05T03:39:31.118Z,69.30
2018-06-05T03:41:59.496Z,69.30
2018-06-05T03:44:28.104Z,69.30
2018-06-05T03:46:56.539Z,69.30
2018-06-05T03:49:25.343Z,69.30
2018-06-05T03:51:54.384Z,69.30
2018-06-05T03:54:22.784Z,69.30
2018-06-05T03:56:51.176Z,69.40
2018-06-05T03:59:19.584Z,69.30
2018-06-05T04:01:47.995Z,69.40
2018-06-05T04:04:16.760Z,69.30
2018-06-05T04:06:45.185Z,69.30
2018-06-05T04:09:13.588Z,69.30
2018-06-05T04:11:41.984Z,69.30
2018-06-05T04:14:10.700Z,69.30
2018-06-05T04:16:39.080Z,69.30
2018-06-05T04:19:07.559Z,69.30
2018-06-05T04:21:35.943Z,69.30
2018-06-05T04:24:04.351Z,69.30
2018-06-05T04:26:32.909Z,69.30
2018-06-05T04:29:01.488Z,69.30
2018-06-05T04:31:29.879Z,69.50
2018-06-05T04:33:58.264Z,69.30
2018-06-05T04:36:27.867Z,69.30
2018-06-05T04:38:57.525Z,70.10
2018-06-05T04:41:27.353Z,69.30
2018-06-05T04:43:57.048Z,70.00
2018-06-05T04:46:26.450Z,69.30
2018-06-05T04:48:55.374Z,69.30
2018-06-05T04:51:39.667Z,69.30
2018-06-05T04:54:24.334Z,69.30
2018-06-05T04:56:52.881Z,69.30
2018-06-05T04:59:22.159Z,69.30
2018-06-05T05:01:50.567Z,69.30
2018-06-05T05:04:18.943Z,69.30
2018-06-05T05:06:47.352Z,69.20
2018-06-05T05:09:16.464Z,69.20
2018-06-05T05:11:44.949Z,69.10
2018-06-05T05:14:13.383Z,69.20
2018-06-05T05:16:41.779Z,69.90
2018-06-05T05:19:10.160Z,69.10
2018-06-05T05:21:38.535Z,69.90
2018-06-05T05:24:06.994Z,69.00
2018-06-05T05:26:35.459Z,69.00
2018-06-05T05:29:03.838Z,69.10
2018-06-05T05:31:32.216Z,69.10
2018-06-05T05:34:00.634Z,69.00
2018-06-05T05:36:29.037Z,69.10
2018-06-05T05:38:57.412Z,69.00
2018-06-05T05:41:26.744Z,69.00
2018-06-05T05:43:56.156Z,69.00
2018-06-05T05:46:25.480Z,69.00
2018-06-05T05:48:54.017Z,69.00
2018-06-05T05:51:22.425Z,69.00
2018-06-05T05:53:50.909Z,69.00
2018-06-05T05:56:19.360Z,68.90
2018-06-05T05:58:47.740Z,68.90
2018-06-05T06:01:16.132Z,68.90
2018-06-05T06:03:44.519Z,68.90
2018-06-05T06:06:12.984Z,68.90
2018-06-05T06:08:41.376Z,68.90
2018-06-05T06:11:09.767Z,68.80
2018-06-05T06:13:38.157Z,68.90
2018-06-05T06:16:06.543Z,68.90
2018-06-05T06:18:35.092Z,68.80
2018-06-05T06:21:03.487Z,68.90
2018-06-05T06:23:31.871Z,68.90
2018-06-05T06:26:00.262Z,68.80
2018-06-05T06:28:28.641Z,68.80
2018-06-05T06:30:57.036Z,68.70
2018-06-05T06:33:26.493Z,68.70
2018-06-05T06:35:55.363Z,68.80
2018-06-05T06:38:24.382Z,68.70
2018-06-05T06:40:52.776Z,68.70
2018-06-05T06:43:21.172Z,68.60
2018-06-05T06:45:49.587Z,68.60
2018-06-05T06:48:17.968Z,68.50
2018-06-05T06:50:46.371Z,68.50
2018-06-05T06:53:14.757Z,68.50
2018-06-05T06:55:43.148Z,68.50
2018-06-05T06:58:11.534Z,68.50
2018-06-05T07:00:39.948Z,68.30
2018-06-05T07:03:08.345Z,68.30
2018-06-05T07:05:36.740Z,68.30
2018-06-05T07:08:05.125Z,68.20
2018-06-05T07:13:01.738Z,68.60
2018-06-05T07:15:30.125Z,68.10
2018-06-05T07:17:58.504Z,68.10
2018-06-05T07:20:26.902Z,68.10
2018-06-05T07:22:56.267Z,68.00
2018-06-05T07:25:25.300Z,68.00
2018-06-05T07:27:54.336Z,67.90
2018-06-05T07:30:22.746Z,67.90
2018-06-05T07:32:51.136Z,67.90
2018-06-05T07:35:19.521Z,67.90
2018-06-05T07:37:47.907Z,67.80
2018-06-05T07:40:16.288Z,67.80
2018-06-05T07:42:44.683Z,67.90
2018-06-05T07:45:13.087Z,67.90
2018-06-05T07:47:41.479Z,67.90
2018-06-05T07:50:09.869Z,67.90
2018-06-05T07:52:38.308Z,67.90
2018-06-05T07:55:06.680Z,67.90
2018-06-05T07:57:35.158Z,67.80
2018-06-05T08:00:03.963Z,67.90
2018-06-05T08:02:32.366Z,67.80
2018-06-05T08:05:00.743Z,67.90
2018-06-05T08:07:29.112Z,67.90
2018-06-05T08:09:57.484Z,67.80
2018-06-05T08:12:26.466Z,67.80
2018-06-05T08:14:55.352Z,67.80
2018-06-05T08:17:24.598Z,67.70
2018-06-05T08:19:52.984Z,67.70
2018-06-05T08:22:21.376Z,67.80
2018-06-05T08:24:49.747Z,67.80
2018-06-05T08:27:24.365Z,67.80
2018-06-05T08:29:52.782Z,67.80
2018-06-05T08:32:21.151Z,67.80
2018-06-05T08:34:49.539Z,67.80
2018-06-05T08:37:17.936Z,67.80
2018-06-05T08:39:46.323Z,67.70
2018-06-05T08:42:17.777Z,68.50
2018-06-05T08:44:46.185Z,67.80
2018-06-05T08:47:14.577Z,67.70
2018-06-05T08:49:42.989Z,67.80
2018-06-05T08:52:11.360Z,67.70
2018-06-05T08:54:39.783Z,67.70
2018-06-05T08:57:08.559Z,67.70
2018-06-05T08:59:36.991Z,67.70
2018-06-05T09:02:05.379Z,67.60
2018-06-05T09:04:33.750Z,67.60
2018-06-05T09:07:02.292Z,67.60
2018-06-05T09:09:30.720Z,67.50
2018-06-05T09:11:59.093Z,67.60
2018-06-05T09:14:27.475Z,67.60
2018-06-05T09:16:56.388Z,67.60
2018-06-05T09:19:25.329Z,67.50
2018-06-05T09:21:54.560Z,67.40
2018-06-05T09:24:22.938Z,67.40
2018-06-05T09:26:51.329Z,67.40
2018-06-05T09:29:19.696Z,67.40
2018-06-05T09:31:48.072Z,67.30
2018-06-05T09:34:16.601Z,67.30
2018-06-05T09:36:44.967Z,67.30
2018-06-05T09:39:13.365Z,67.30
2018-06-05T09:41:41.752Z,67.30
2018-06-05T09:44:10.148Z,67.30
2018-06-05T09:46:38.588Z,67.30
2018-06-05T09:49:07.059Z,67.30
2018-06-05T09:51:35.428Z,67.20
2018-06-05T09:54:03.813Z,67.20
2018-06-05T09:56:32.185Z,67.20
2018-06-05T10:01:28.677Z,67.10
2018-06-05T10:03:57.078Z,67.20
2018-06-05T10:06:43.388Z,67.20
2018-06-05T10:09:11.775Z,67.20
2018-06-05T10:11:40.128Z,67.20
2018-06-05T10:14:08.515Z,67.20
2018-06-05T10:16:36.915Z,67.20
2018-06-05T10:19:05.300Z,67.20
2018-06-05T10:21:33.693Z,67.10
2018-06-05T10:24:02.061Z,67.20
2018-06-05T10:26:30.431Z,67.20
2018-06-05T10:28:58.796Z,67.10
2018-06-05T10:31:27.165Z,67.10
2018-06-05T10:33:56.929Z,67.10
2018-06-05T10:36:26.129Z,67.10
2018-06-05T10:38:55.420Z,67.00
2018-06-05T10:41:24.432Z,67.10
2018-06-05T10:43:52.942Z,67.10
2018-06-05T10:46:21.303Z,67.00
2018-06-05T10:48:49.687Z,67.00
2018-06-05T10:51:18.049Z,67.00
2018-06-05T10:53:46.479Z,67.00
2018-06-05T10:56:15.108Z,67.00
2018-06-05T10:58:43.492Z,67.00
2018-06-05T11:01:11.880Z,67.00
2018-06-05T11:03:40.256Z,66.90
2018-06-05T11:06:08.662Z,66.90
2018-06-05T11:08:37.047Z,66.90
2018-06-05T11:11:05.417Z,66.90
2018-06-05T11:13:33.794Z,66.90
2018-06-05T11:16:02.218Z,67.00
2018-06-05T11:18:30.563Z,66.90
2018-06-05T11:20:58.951Z,66.80
2018-06-05T11:23:27.315Z,66.80
2018-06-05T11:25:56.712Z,66.80
2018-06-05T11:28:26.012Z,66.80
2018-06-05T11:30:55.302Z,66.80
2018-06-05T11:33:24.809Z,66.80
2018-06-05T11:35:53.219Z,66.70
2018-06-05T11:38:21.613Z,66.70
2018-06-05T11:40:49.991Z,66.70
2018-06-05T11:43:18.365Z,66.60
2018-06-05T11:45:46.739Z,66.70
2018-06-05T11:48:15.111Z,66.70
2018-06-05T11:50:43.487Z,66.70
2018-06-05T11:53:11.872Z,66.60
2018-06-05T11:55:40.259Z,66.60
2018-06-05T11:58:08.641Z,66.50
2018-06-05T12:00:37.003Z,66.50
2018-06-05T12:03:05.371Z,66.50
2018-06-05T12:05:33.749Z,66.50
2018-06-05T12:08:02.128Z,66.50
2018-06-05T12:10:30.505Z,66.50
2018-06-05T12:12:58.883Z,66.50
2018-06-05T12:15:27.267Z,66.50
2018-06-05T12:17:56.689Z,66.50
2018-06-05T12:20:26.151Z,66.50
2018-06-05T12:22:55.635Z,66.50
2018-06-05T12:25:24.474Z,66.40
2018-06-05T12:27:52.855Z,66.40
2018-06-05T12:30:21.221Z,66.40
2018-06-05T12:35:17.719Z,66.50
2018-06-05T12:37:46.103Z,66.50
2018-06-05T12:40:14.467Z,66.40
2018-06-05T12:42:42.844Z,66.50
2018-06-05T12:45:11.215Z,66.50
2018-06-05T12:47:39.583Z,66.40
2018-06-05T12:50:07.951Z,66.40
2018-06-05T12:52:36.360Z,66.40
2018-06-05T12:55:04.763Z,66.40
2018-06-05T12:57:33.123Z,66.40
2018-06-05T13:00:01.487Z,66.40
2018-06-05T13:02:29.862Z,66.40
2018-06-05T13:04:58.231Z,66.40
2018-06-05T13:07:27.492Z,66.30
2018-06-05T13:09:55.935Z,66.40
2018-06-05T13:12:25.404Z,66.30
2018-06-05T13:14:54.427Z,66.40
2018-06-05T13:17:22.880Z,66.40
2018-06-05T13:19:51.224Z,66.40
2018-06-05T13:22:19.597Z,66.20
2018-06-05T13:24:48.003Z,66.30
2018-06-05T13:27:18.271Z,66.40
2018-06-05T13:29:46.825Z,66.40
2018-06-05T13:32:15.344Z,66.40
2018-06-05T13:34:43.751Z,66.20
2018-06-05T13:37:12.207Z,66.30
2018-06-05T13:39:41.147Z,66.30
2018-06-05T13:42:09.717Z,66.40
2018-06-05T13:44:38.515Z,66.30
2018-06-05T13:47:06.889Z,66.40
2018-06-05T13:49:35.276Z,66.40
2018-06-05T13:52:03.664Z,66.40
2018-06-05T13:54:32.176Z,66.50
2018-06-05T13:57:00.595Z,66.60
2018-06-05T13:59:29.700Z,66.50
2018-06-05T14:01:58.203Z,66.50
2018-06-05T14:04:27.480Z,66.50
2018-06-05T14:06:57.989Z,66.40
2018-06-05T14:09:27.268Z,66.50
2018-06-05T14:11:56.936Z,66.50
2018-06-05T14:14:26.169Z,66.50
2018-06-05T14:16:55.392Z,66.60
2018-06-05T14:19:24.491Z,66.60
2018-06-05T14:21:54.445Z,66.60
2018-06-05T14:24:22.815Z,66.60
2018-06-05T14:26:51.188Z,66.50
2018-06-05T14:29:19.556Z,66.60
2018-06-05T14:31:48.183Z,66.70
2018-06-05T14:34:16.697Z,66.70
2018-06-05T14:36:45.404Z,66.70
2018-06-05T14:39:14.536Z,67.00
2018-06-05T14:41:43.085Z,66.80
2018-06-05T14:44:11.560Z,66.80
2018-06-05T14:46:40.384Z,66.80
2018-06-05T14:49:09.454Z,66.80
2018-06-05T14:51:37.831Z,66.90
2018-06-05T14:54:06.274Z,66.90
2018-06-05T14:56:34.811Z,66.90
2018-06-05T14:59:03.455Z,66.90
2018-06-05T15:01:32.177Z,67.00
2018-06-05T15:04:00.650Z,67.00
2018-06-05T15:06:29.345Z,67.00
2018-06-05T15:08:57.948Z,67.00
2018-06-05T15:11:27.210Z,67.00
2018-06-05T15:16:25.285Z,67.10
2018-06-05T15:18:54.520Z,67.00
2018-06-05T15:21:22.887Z,67.10
2018-06-05T15:26:19.561Z,67.10
2018-06-05T15:28:47.926Z,67.10
2018-06-05T15:31:19.340Z,67.00
2018-06-05T15:33:47.734Z,67.90
2018-06-05T15:36:16.148Z,67.10
2018-06-05T15:41:12.655Z,67.20
2018-06-05T15:43:41.067Z,67.20
2018-06-05T15:46:09.469Z,67.20
2018-06-05T15:48:37.855Z,67.30
2018-06-05T15:51:06.716Z,67.30
2018-06-05T15:53:35.429Z,67.30
2018-06-05T15:56:03.800Z,67.30
2018-06-05T15:58:32.183Z,67.40
2018-06-05T16:01:02.800Z,67.30
2018-06-05T16:03:31.412Z,67.40
2018-06-05T16:06:00.036Z,67.40
2018-06-05T16:08:28.537Z,67.50
2018-06-05T16:10:57.030Z,67.50
2018-06-05T16:15:55.439Z,67.50
2018-06-05T16:18:24.385Z,67.60
2018-06-05T16:20:52.822Z,67.60
2018-06-05T16:23:23.460Z,67.60
2018-06-05T16:25:52.035Z,67.60
2018-06-05T16:28:20.602Z,67.70
2018-06-05T16:30:49.334Z,67.70
2018-06-05T16:33:18.854Z,67.70
2018-06-05T16:35:47.454Z,67.70
2018-06-05T16:38:16.111Z,67.70
2018-06-05T16:40:46.380Z,67.80
2018-06-05T16:43:15.724Z,67.80
2018-06-05T16:45:44.276Z,67.80
2018-06-05T16:48:12.774Z,67.90
2018-06-05T16:50:41.185Z,67.90
2018-06-05T16:53:09.952Z,68.00
2018-06-05T16:55:38.379Z,68.00
2018-06-05T16:58:06.965Z,67.90
2018-06-05T17:00:35.332Z,68.00
2018-06-05T17:03:03.745Z,68.00
2018-06-05T17:05:32.146Z,68.80
2018-06-05T17:08:00.561Z,68.10
2018-06-05T17:10:28.993Z,68.10
2018-06-05T17:12:57.445Z,68.10
2018-06-05T17:15:27.038Z,68.10
2018-06-05T17:17:56.303Z,68.20
2018-06-05T17:20:25.355Z,68.20
2018-06-05T17:22:54.347Z,68.20
2018-06-05T17:25:22.736Z,68.20
2018-06-05T17:27:51.119Z,68.30
2018-06-05T17:30:19.708Z,68.30
2018-06-05T17:32:49.192Z,68.30
2018-06-05T17:35:17.692Z,68.30
2018-06-05T17:37:46.377Z,68.40
2018-06-05T17:40:15.979Z,68.40
2018-06-05T17:42:44.576Z,68.40
2018-06-05T17:45:13.043Z,68.40
2018-06-05T17:47:41.403Z,68.40
2018-06-05T17:50:09.808Z,68.40
2018-06-05T17:52:38.290Z,68.50
2018-06-05T17:55:08.417Z,68.50
2018-06-05T17:57:36.781Z,68.50
2018-06-05T18:00:05.221Z,68.60
2018-06-05T18:02:33.603Z,68.50
2018-06-05T18:05:01.975Z,68.50
2018-06-05T18:07:38.120Z,68.60
2018-06-05T18:10:06.711Z,68.60
2018-06-05T18:12:35.267Z,68.50
2018-06-05T18:15:03.611Z,68.60
2018-06-05T18:17:32.074Z,68.60
2018-06-05T18:22:28.804Z,68.60
2018-06-05T18:24:57.194Z,68.60
2018-06-05T18:27:25.907Z,68.70
2018-06-05T18:29:55.407Z,69.40
2018-06-05T18:34:52.968Z,68.70
2018-06-05T18:37:24.425Z,68.70
2018-06-05T18:39:54.562Z,68.70
2018-06-05T18:44:51.136Z,68.80
2018-06-05T18:47:19.679Z,68.80
2018-06-05T18:49:48.203Z,68.80
2018-06-05T18:52:16.619Z,69.70
2018-06-05T18:54:45.028Z,68.80
2018-06-05T18:57:13.715Z,68.80
2018-06-05T18:59:42.098Z,68.80
2018-06-05T19:02:10.500Z,68.80
2018-06-05T19:04:39.094Z,68.80
2018-06-05T19:07:07.487Z,68.80
2018-06-05T19:09:35.902Z,68.90
2018-06-05T19:12:05.776Z,68.80
2018-06-05T19:14:34.282Z,68.90
2018-06-05T19:17:02.853Z,68.90
2018-06-05T19:19:31.256Z,68.90
2018-06-05T19:21:59.736Z,69.00
2018-06-05T19:24:28.250Z,68.90
2018-06-05T19:26:57.920Z,68.90
2018-06-05T19:29:26.518Z,69.00
2018-06-05T19:31:55.366Z,69.20
2018-06-05T19:34:24.553Z,69.20
2018-06-05T19:39:21.112Z,66.40
2018-06-05T19:41:49.685Z,65.60
2018-06-05T19:44:18.075Z,65.40
2018-06-05T19:46:46.493Z,65.30
2018-06-05T19:49:14.873Z,65.50
2018-06-05T19:51:44.028Z,65.50
2018-06-05T19:54:13.341Z,65.60
2018-06-05T19:56:42.151Z,65.70
2018-06-05T19:59:10.537Z,65.70
2018-06-05T20:01:38.939Z,65.80
2018-06-05T20:04:07.322Z,66.00
2018-06-05T20:06:35.686Z,66.10
2018-06-05T20:09:05.619Z,66.20
2018-06-05T20:11:34.095Z,66.20
2018-06-05T20:14:02.484Z,66.40
2018-06-05T20:16:32.052Z,66.40
2018-06-05T20:19:00.474Z,66.50
2018-06-05T20:21:28.902Z,66.70
2018-06-05T20:23:57.573Z,66.70
2018-06-05T20:26:26.913Z,66.90
2018-06-05T20:28:56.528Z,66.90
2018-06-05T20:31:26.148Z,66.90
2018-06-05T20:33:55.257Z,67.00
2018-06-05T20:36:24.328Z,67.10
2018-06-05T20:38:52.747Z,67.10
2018-06-05T20:41:21.900Z,67.10
2018-06-05T20:43:50.369Z,67.60
2018-06-05T20:46:18.747Z,67.30
2018-06-05T20:48:47.710Z,67.30
2018-06-05T20:51:16.706Z,67.30
2018-06-05T20:53:45.123Z,67.40
2018-06-05T20:56:13.517Z,68.30
2018-06-05T20:58:41.890Z,67.50
2018-06-05T21:01:10.292Z,67.60
2018-06-05T21:03:38.704Z,67.60
2018-06-05T21:06:07.319Z,67.60
2018-06-05T21:08:35.716Z,67.70
2018-06-05T21:11:04.124Z,67.70
2018-06-05T21:13:34.012Z,67.70
2018-06-05T21:16:03.332Z,67.70
2018-06-05T21:18:31.783Z,67.80
2018-06-05T21:21:00.195Z,67.80
2018-06-05T21:23:28.593Z,67.90
2018-06-05T21:25:56.972Z,67.90
2018-06-05T21:28:26.148Z,67.90
2018-06-05T21:30:55.392Z,67.80
2018-06-05T21:35:52.098Z,67.90
2018-06-05T21:38:20.740Z,67.90
2018-06-05T21:40:49.143Z,67.90
2018-06-05T21:43:17.543Z,68.00
2018-06-05T21:45:45.952Z,68.00
2018-06-05T21:48:14.355Z,68.10
2018-06-05T21:50:42.744Z,68.10
2018-06-05T21:53:11.136Z,68.10
2018-06-05T21:55:39.548Z,68.10
2018-06-05T21:58:07.938Z,68.10
2018-06-05T22:00:36.371Z,68.20
2018-06-05T22:03:04.736Z,68.20
2018-06-05T22:05:33.107Z,68.20
2018-06-05T22:08:01.491Z,68.20
2018-06-05T22:10:29.868Z,68.20
2018-06-05T22:12:58.255Z,68.30
2018-06-05T22:15:27.040Z,68.30
2018-06-05T22:17:56.423Z,69.00
2018-06-05T22:20:25.315Z,68.30
2018-06-05T22:22:54.461Z,68.30
2018-06-05T22:25:22.906Z,68.40
2018-06-05T22:30:19.478Z,68.40
2018-06-05T22:32:47.951Z,68.40
2018-06-05T22:35:16.335Z,68.40
2018-06-05T22:37:44.723Z,68.40
2018-06-05T22:42:41.233Z,69.30
2018-06-05T22:45:11.612Z,68.40
2018-06-05T22:47:40.264Z,68.40
2018-06-05T22:50:08.659Z,68.50
2018-06-05T22:52:37.036Z,68.50
2018-06-05T22:55:05.423Z,68.50
2018-06-05T22:57:33.808Z,68.40
2018-06-05T23:00:02.176Z,69.30
2018-06-05T23:02:30.538Z,68.50
2018-06-05T23:04:58.890Z,68.50
2018-06-05T23:07:27.318Z,68.50
2018-06-05T23:09:56.864Z,68.50
2018-06-05T23:12:26.061Z,68.50
2018-06-05T23:14:55.116Z,68.50
2018-06-05T23:17:23.556Z,68.60
2018-06-05T23:19:51.955Z,68.60
2018-06-05T23:22:20.319Z,68.60
2018-06-05T23:24:48.668Z,68.60
2018-06-05T23:27:20.176Z,68.60
2018-06-05T23:29:48.535Z,68.70
2018-06-05T23:32:16.935Z,68.70
2018-06-05T23:34:45.296Z,68.70
2018-06-05T23:37:13.647Z,68.70
2018-06-05T23:39:42.003Z,68.60
2018-06-05T23:42:10.365Z,68.60
2018-06-05T23:44:38.744Z,68.60
2018-06-05T23:47:07.111Z,68.60
2018-06-05T23:49:35.463Z,68.60
2018-06-05T23:52:03.825Z,68.60
2018-06-05T23:54:32.243Z,68.70
2018-06-05T23:57:00.596Z,68.60
2018-06-05T23:59:28.963Z,68.60
